createdAt,value
2023-04-19T00:01:59.146Z,68.02
2023-04-19T00:04:27.667Z,68.05
2023-04-19T00:06:56.913Z,68.05
2023-04-19T00:09:25.491Z,67.93
2023-04-19T00:11:53.780Z,67.98
2023-04-19T00:14:22.069Z,67.94
2023-04-19T00:16:50.530Z,67.96
2023-04-19T00:19:19.020Z,67.89
2023-04-19T00:21:47.431Z,67.90
2023-04-19T00:24:16.255Z,67.88
2023-04-19T00:26:44.510Z,67.80
2023-04-19T00:29:12.649Z,67.72
2023-04-19T00:31:40.819Z,67.82
2023-04-19T00:34:08.989Z,67.60
2023-04-19T00:36:37.751Z,67.72
2023-04-19T00:39:06.237Z,67.81
2023-04-19T00:41:34.310Z,67.82
2023-04-19T00:44:02.492Z,67.75
2023-04-19T00:46:30.909Z,67.68
2023-04-19T00:49:01.185Z,67.67
2023-04-19T00:51:29.924Z,67.66
2023-04-19T00:53:58.657Z,67.84
2023-04-19T00:56:27.647Z,67.83
2023-04-19T00:58:56.912Z,67.86
2023-04-19T01:01:25.214Z,67.84
2023-04-19T01:03:53.712Z,67.89
2023-04-19T01:06:22.290Z,67.74
2023-04-19T01:08:50.780Z,67.83
2023-04-19T01:11:19.214Z,67.87
2023-04-19T01:13:47.352Z,67.94
2023-04-19T01:16:15.933Z,67.90
2023-04-19T01:18:44.052Z,67.65
2023-04-19T01:21:13.090Z,67.75
2023-04-19T01:23:41.274Z,67.98
2023-04-19T01:26:09.670Z,67.99
2023-04-19T01:28:38.029Z,67.88
2023-04-19T01:31:06.815Z,67.96
2023-04-19T01:33:35.044Z,68.02
2023-04-19T01:36:03.372Z,67.86
2023-04-19T01:38:31.594Z,68.01
2023-04-19T01:40:59.718Z,67.83
2023-04-19T01:43:27.871Z,67.94
2023-04-19T01:45:56.215Z,67.76
2023-04-19T01:48:24.280Z,67.83
2023-04-19T01:50:52.356Z,67.82
2023-04-19T01:53:20.684Z,67.93
2023-04-19T01:55:48.782Z,67.92
2023-04-19T01:58:16.872Z,68.10
2023-04-19T02:00:46.444Z,68.09
2023-04-19T02:03:15.049Z,67.89
2023-04-19T02:05:44.103Z,67.90
2023-04-19T02:08:12.277Z,67.89
2023-04-19T02:10:40.929Z,67.92
2023-04-19T02:13:09.239Z,67.85
2023-04-19T02:15:37.746Z,67.97
2023-04-19T02:18:07.053Z,68.01
2023-04-19T02:20:35.683Z,67.89
2023-04-19T02:23:05.443Z,67.96
2023-04-19T02:25:35.308Z,68.07
2023-04-19T02:28:03.444Z,67.91
2023-04-19T02:30:31.699Z,68.09
2023-04-19T02:32:59.875Z,67.99
2023-04-19T02:35:28.721Z,67.87
2023-04-19T02:38:01.394Z,67.88
2023-04-19T02:40:30.309Z,67.90
2023-04-19T02:43:00.194Z,68.04
2023-04-19T02:45:28.377Z,68.15
2023-04-19T02:47:56.539Z,68.09
2023-04-19T02:50:24.736Z,68.12
2023-04-19T02:52:53.212Z,68.14
2023-04-19T02:55:22.418Z,68.07
2023-04-19T02:57:56.283Z,68.05
2023-04-19T03:00:24.599Z,68.17
2023-04-19T03:03:04.772Z,68.17
2023-04-19T03:05:33.593Z,68.06
2023-04-19T03:08:01.770Z,68.20
2023-04-19T03:10:30.391Z,68.10
2023-04-19T03:12:58.509Z,68.19
2023-04-19T03:15:26.942Z,68.18
2023-04-19T03:17:55.285Z,68.06
2023-04-19T03:20:23.473Z,68.16
2023-04-19T03:22:52.187Z,68.19
2023-04-19T03:25:21.737Z,68.20
2023-04-19T03:27:56.708Z,68.21
2023-04-19T03:30:39.587Z,68.10
2023-04-19T03:33:08.056Z,67.97
2023-04-19T03:35:36.269Z,68.03
2023-04-19T03:38:10.430Z,68.02
2023-04-19T03:40:39.116Z,68.02
2023-04-19T03:43:08.619Z,67.99
2023-04-19T03:45:36.982Z,68.07
2023-04-19T03:48:05.447Z,68.01
2023-04-19T03:50:33.586Z,68.10
2023-04-19T03:53:04.889Z,67.89
2023-04-19T03:55:33.281Z,67.89
2023-04-19T03:58:02.325Z,67.95
2023-04-19T04:00:38.269Z,68.12
2023-04-19T04:03:06.674Z,68.15
2023-04-19T04:05:35.756Z,68.19
2023-04-19T04:08:04.523Z,67.99
2023-04-19T04:10:33.000Z,67.95
2023-04-19T04:13:01.524Z,67.95
2023-04-19T04:15:38.511Z,67.91
2023-04-19T04:18:09.247Z,67.94
2023-04-19T04:20:37.575Z,67.95
2023-04-19T04:23:09.228Z,67.80
2023-04-19T04:25:39.709Z,67.84
2023-04-19T04:28:11.325Z,67.94
2023-04-19T04:30:41.909Z,67.92
2023-04-19T04:33:12.120Z,67.91
2023-04-19T04:35:42.125Z,67.67
2023-04-19T04:38:24.045Z,67.72
2023-04-19T04:40:55.289Z,67.75
2023-04-19T04:43:25.900Z,67.57
2023-04-19T04:45:55.821Z,67.74
2023-04-19T04:48:25.024Z,67.65
2023-04-19T04:50:53.124Z,67.61
2023-04-19T04:53:21.256Z,67.46
2023-04-19T04:55:50.675Z,67.45
2023-04-19T04:58:20.539Z,67.43
2023-04-19T05:01:17.553Z,67.48
2023-04-19T05:03:46.156Z,67.39
2023-04-19T05:06:17.886Z,67.47
2023-04-19T05:08:46.051Z,67.52
2023-04-19T05:11:21.861Z,67.60
2023-04-19T05:13:50.908Z,67.47
2023-04-19T05:16:19.917Z,67.45
2023-04-19T05:18:48.848Z,67.35
2023-04-19T05:21:17.768Z,67.19
2023-04-19T05:23:46.615Z,67.10
2023-04-19T05:26:15.859Z,67.32
2023-04-19T05:28:45.544Z,67.22
2023-04-19T05:31:22.272Z,67.14
2023-04-19T05:34:03.991Z,67.01
2023-04-19T05:36:32.326Z,66.91
2023-04-19T05:39:01.323Z,66.85
2023-04-19T05:41:29.498Z,67.00
2023-04-19T05:43:57.989Z,66.91
2023-04-19T05:46:27.230Z,66.86
2023-04-19T05:48:56.107Z,66.92
2023-04-19T05:51:42.674Z,66.89
2023-04-19T05:54:34.901Z,66.65
2023-04-19T05:57:03.681Z,66.57
2023-04-19T05:59:32.118Z,66.59
2023-04-19T06:02:01.537Z,66.64
2023-04-19T06:04:30.463Z,66.68
2023-04-19T06:06:58.929Z,66.76
2023-04-19T06:09:27.025Z,66.81
2023-04-19T06:11:55.306Z,66.63
2023-04-19T06:14:23.458Z,66.69
2023-04-19T06:16:52.774Z,66.67
2023-04-19T06:19:21.389Z,66.43
2023-04-19T06:21:49.661Z,66.48
2023-04-19T06:24:17.942Z,66.39
2023-04-19T06:26:48.246Z,66.47
2023-04-19T06:29:16.470Z,66.52
2023-04-19T06:31:46.430Z,66.55
2023-04-19T06:34:14.637Z,66.55
2023-04-19T06:36:42.726Z,66.41
2023-04-19T06:39:11.074Z,66.35
2023-04-19T06:41:39.221Z,66.29
2023-04-19T06:44:07.463Z,66.32
2023-04-19T06:46:35.746Z,66.30
2023-04-19T06:49:04.216Z,66.26
2023-04-19T06:51:33.590Z,66.26
2023-04-19T06:54:01.723Z,66.30
2023-04-19T06:56:47.941Z,66.34
2023-04-19T06:59:19.238Z,66.08
2023-04-19T07:01:48.444Z,66.13
2023-04-19T07:04:17.862Z,66.32
2023-04-19T07:06:49.388Z,66.17
2023-04-19T07:09:17.627Z,66.07
2023-04-19T07:11:47.707Z,66.15
2023-04-19T07:14:16.979Z,66.15
2023-04-19T07:16:49.314Z,65.95
2023-04-19T07:19:20.697Z,66.01
2023-04-19T07:21:49.176Z,66.04
2023-04-19T07:24:17.837Z,66.00
2023-04-19T07:26:46.407Z,65.96
2023-04-19T07:29:14.703Z,66.00
2023-04-19T07:31:43.187Z,65.84
2023-04-19T07:34:11.590Z,65.86
2023-04-19T07:36:40.069Z,65.86
2023-04-19T07:39:08.365Z,65.78
2023-04-19T07:41:36.674Z,65.95
2023-04-19T07:44:05.231Z,65.86
2023-04-19T07:46:33.604Z,65.80
2023-04-19T07:49:02.178Z,65.68
2023-04-19T07:51:31.603Z,65.66
2023-04-19T07:53:59.812Z,65.48
2023-04-19T07:56:28.132Z,65.52
2023-04-19T07:59:07.762Z,65.54
2023-04-19T08:01:37.854Z,65.31
2023-04-19T08:04:06.674Z,65.35
2023-04-19T08:06:38.013Z,65.42
2023-04-19T08:09:06.914Z,65.39
2023-04-19T08:11:35.043Z,65.31
2023-04-19T08:14:28.478Z,65.19
2023-04-19T08:19:22.573Z,65.21
2023-04-19T08:21:51.066Z,65.32
2023-04-19T08:24:19.892Z,65.12
2023-04-19T08:26:53.908Z,65.30
2023-04-19T08:29:23.519Z,65.29
2023-04-19T08:31:51.856Z,65.37
2023-04-19T08:34:20.105Z,65.33
2023-04-19T08:37:00.101Z,65.16
2023-04-19T08:39:34.945Z,65.21
2023-04-19T08:42:21.154Z,65.28
2023-04-19T08:47:44.935Z,65.27
2023-04-19T08:50:32.111Z,65.23
2023-04-19T08:55:33.717Z,65.22
2023-04-19T08:58:05.712Z,65.08
2023-04-19T09:00:39.749Z,65.09
2023-04-19T09:03:11.513Z,65.19
2023-04-19T09:05:40.104Z,65.32
2023-04-19T09:08:27.535Z,65.27
2023-04-19T09:11:01.436Z,65.14
2023-04-19T09:13:30.164Z,65.28
2023-04-19T09:16:00.982Z,65.30
2023-04-19T09:18:31.439Z,65.11
2023-04-19T09:21:01.551Z,65.27
2023-04-19T09:23:29.678Z,65.16
2023-04-19T09:28:34.047Z,65.26
2023-04-19T09:41:57.010Z,65.55
2023-04-19T09:46:56.245Z,65.77
2023-04-19T09:49:37.642Z,65.83
2023-04-19T09:52:14.938Z,65.85
2023-04-19T09:54:44.512Z,65.87
2023-04-19T09:57:12.864Z,65.91
2023-04-19T09:59:41.072Z,66.01
2023-04-19T10:02:13.228Z,66.17
2023-04-19T10:05:02.793Z,66.31
2023-04-19T10:07:32.169Z,66.41
2023-04-19T10:10:16.140Z,66.40
2023-04-19T10:15:33.777Z,66.63
2023-04-19T10:18:11.984Z,66.70
2023-04-19T10:20:47.291Z,66.70
2023-04-19T10:23:16.064Z,66.86
2023-04-19T10:25:48.917Z,66.93
2023-04-19T10:28:17.784Z,67.01
2023-04-19T10:30:54.582Z,67.03
2023-04-19T10:33:33.569Z,67.04
2023-04-19T10:36:02.226Z,67.12
2023-04-19T10:38:38.940Z,67.25
2023-04-19T10:41:14.503Z,67.39
2023-04-19T10:43:48.868Z,67.40
2023-04-19T10:46:37.436Z,67.58
2023-04-19T10:49:08.048Z,67.66
2023-04-19T10:51:38.839Z,67.49
2023-04-19T10:54:32.808Z,67.60
2023-04-19T10:57:04.712Z,67.68
2023-04-19T10:59:34.103Z,67.75
2023-04-19T11:02:21.991Z,67.79
2023-04-19T11:04:50.393Z,67.92
2023-04-19T11:07:18.702Z,68.03
2023-04-19T11:09:48.649Z,68.03
2023-04-19T11:12:20.229Z,68.11
2023-04-19T11:14:54.879Z,68.12
2023-04-19T11:17:28.307Z,68.13
2023-04-19T11:19:59.699Z,68.10
2023-04-19T11:22:31.876Z,68.17
2023-04-19T11:25:12.209Z,68.20
2023-04-19T11:27:42.011Z,68.27
2023-04-19T11:30:15.558Z,68.39
2023-04-19T11:32:53.728Z,68.36
2023-04-19T11:35:28.113Z,68.42
2023-04-19T11:37:58.897Z,68.40
2023-04-19T11:40:27.226Z,68.32
2023-04-19T11:43:02.770Z,68.44
2023-04-19T11:45:38.085Z,68.35
2023-04-19T11:48:15.943Z,68.42
2023-04-19T11:50:45.977Z,68.59
2023-04-19T11:53:25.874Z,68.45
2023-04-19T11:56:15.629Z,68.46
2023-04-19T11:58:51.008Z,68.47
2023-04-19T12:01:20.875Z,68.48
2023-04-19T12:03:52.184Z,68.50
2023-04-19T12:06:26.048Z,68.44
2023-04-19T12:08:56.034Z,68.63
2023-04-19T12:11:46.380Z,68.45
2023-04-19T12:14:18.666Z,68.48
2023-04-19T12:17:03.218Z,68.38
2023-04-19T12:19:36.670Z,68.45
2023-04-19T12:22:13.775Z,68.39
2023-04-19T12:24:42.662Z,68.36
2023-04-19T12:27:11.660Z,68.49
2023-04-19T12:29:39.920Z,68.46
2023-04-19T12:32:10.279Z,68.51
2023-04-19T12:34:38.478Z,68.26
2023-04-19T12:37:06.662Z,68.18
2023-04-19T12:39:34.800Z,68.20
2023-04-19T12:42:02.942Z,68.26
2023-04-19T12:44:31.032Z,68.26
2023-04-19T12:46:59.284Z,68.15
2023-04-19T12:49:27.424Z,68.10
2023-04-19T12:51:57.354Z,68.12
2023-04-19T12:54:26.190Z,68.16
2023-04-19T12:56:54.721Z,68.31
2023-04-19T12:59:22.787Z,68.23
2023-04-19T13:01:51.195Z,68.26
2023-04-19T13:04:20.047Z,68.13
2023-04-19T13:06:48.531Z,68.19
2023-04-19T13:09:16.628Z,68.11
2023-04-19T13:11:44.810Z,68.24
2023-04-19T13:14:13.114Z,68.18
2023-04-19T13:16:42.276Z,68.17
2023-04-19T13:19:11.165Z,68.24
2023-04-19T13:21:39.278Z,68.21
2023-04-19T13:24:07.486Z,68.17
2023-04-19T13:26:36.151Z,68.22
2023-04-19T13:29:04.805Z,68.20
2023-04-19T13:31:32.995Z,68.08
2023-04-19T13:34:01.756Z,68.07
2023-04-19T13:36:30.060Z,68.11
2023-04-19T13:38:58.180Z,68.10
2023-04-19T13:41:26.798Z,68.14
2023-04-19T13:43:54.987Z,68.14
2023-04-19T13:46:23.242Z,68.04
2023-04-19T13:48:51.444Z,68.04
2023-04-19T13:51:19.568Z,68.06
2023-04-19T13:53:47.794Z,68.03
2023-04-19T13:56:16.104Z,67.97
2023-04-19T13:58:44.551Z,68.02
2023-04-19T14:01:12.731Z,67.94
2023-04-19T14:03:40.955Z,67.71
2023-04-19T14:06:09.574Z,67.91
2023-04-19T14:08:38.225Z,67.67
2023-04-19T14:11:06.556Z,67.48
2023-04-19T14:13:34.864Z,67.53
2023-04-19T14:16:04.815Z,67.48
2023-04-19T14:18:32.908Z,67.29
2023-04-19T14:21:01.162Z,67.04
2023-04-19T14:23:29.522Z,66.95
2023-04-19T14:25:57.567Z,66.71
2023-04-19T14:28:25.616Z,66.37
2023-04-19T14:30:53.676Z,66.29
2023-04-19T14:33:22.061Z,66.03
2023-04-19T14:35:50.178Z,65.98
2023-04-19T14:38:18.230Z,65.90
2023-04-19T14:40:47.034Z,65.59
2023-04-19T14:43:16.470Z,65.21
2023-04-19T14:45:44.838Z,64.87
2023-04-19T14:48:13.520Z,64.73
2023-04-19T14:50:41.611Z,64.56
2023-04-19T14:53:10.087Z,64.06
2023-04-19T14:55:38.676Z,64.15
2023-04-19T14:58:06.908Z,63.98
2023-04-19T15:00:35.089Z,63.69
2023-04-19T15:03:03.585Z,63.49
2023-04-19T15:05:35.099Z,63.41
2023-04-19T15:08:03.520Z,63.25
2023-04-19T15:10:31.704Z,63.35
2023-04-19T15:12:59.859Z,63.51
2023-04-19T15:15:28.116Z,63.40
2023-04-19T15:17:56.947Z,63.41
2023-04-19T15:20:25.121Z,63.08
2023-04-19T15:22:53.442Z,63.07
2023-04-19T15:25:21.778Z,63.21
2023-04-19T15:27:49.851Z,63.29
2023-04-19T15:30:18.486Z,63.12
2023-04-19T15:32:47.098Z,62.91
2023-04-19T15:35:15.605Z,62.89
2023-04-19T15:37:44.250Z,62.98
2023-04-19T15:40:14.400Z,63.14
2023-04-19T15:42:42.538Z,62.99
2023-04-19T15:45:11.006Z,62.65
2023-04-19T15:47:39.493Z,62.67
2023-04-19T15:50:09.800Z,62.62
2023-04-19T15:52:37.951Z,62.68
2023-04-19T15:55:06.770Z,62.59
2023-04-19T15:57:35.034Z,62.58
2023-04-19T16:00:03.858Z,62.54
2023-04-19T16:02:40.918Z,62.26
2023-04-19T16:05:09.825Z,62.30
2023-04-19T16:07:37.936Z,62.52
2023-04-19T16:10:07.089Z,62.42
2023-04-19T16:12:35.457Z,62.20
2023-04-19T16:15:05.005Z,62.26
2023-04-19T16:17:33.104Z,62.21
2023-04-19T16:20:01.731Z,62.02
2023-04-19T16:22:29.893Z,61.88
2023-04-19T16:24:57.985Z,62.12
2023-04-19T16:27:27.571Z,62.06
2023-04-19T16:29:55.660Z,62.29
2023-04-19T16:32:23.814Z,61.94
2023-04-19T16:34:52.115Z,61.85
2023-04-19T16:37:20.682Z,61.84
2023-04-19T16:39:49.210Z,61.93
2023-04-19T16:42:17.608Z,61.89
2023-04-19T16:44:45.675Z,61.91
2023-04-19T16:47:13.979Z,61.80
2023-04-19T16:49:42.175Z,61.89
2023-04-19T16:52:10.276Z,61.82
2023-04-19T16:54:38.948Z,61.76
2023-04-19T16:57:07.343Z,61.74
2023-04-19T16:59:35.533Z,61.73
2023-04-19T17:02:04.827Z,61.89
2023-04-19T17:04:33.591Z,62.17
2023-04-19T17:07:01.869Z,61.85
2023-04-19T17:09:30.330Z,62.01
2023-04-19T17:11:58.564Z,62.04
2023-04-19T17:14:26.974Z,61.98
2023-04-19T17:16:55.624Z,62.00
2023-04-19T17:19:23.791Z,61.92
2023-04-19T17:21:52.640Z,61.89
2023-04-19T17:24:20.805Z,61.85
2023-04-19T17:26:49.958Z,61.92
2023-04-19T17:29:18.526Z,61.94
2023-04-19T17:31:47.148Z,61.98
2023-04-19T17:34:15.554Z,62.12
2023-04-19T17:36:43.718Z,62.23
2023-04-19T17:39:12.120Z,62.28
2023-04-19T17:41:42.056Z,62.26
2023-04-19T17:44:10.692Z,62.38
2023-04-19T17:46:40.065Z,62.38
2023-04-19T17:49:09.221Z,62.37
2023-04-19T17:51:37.289Z,62.46
2023-04-19T17:54:05.372Z,62.51
2023-04-19T17:56:33.559Z,62.47
2023-04-19T17:59:03.959Z,62.63
2023-04-19T18:01:33.531Z,62.77
2023-04-19T18:04:02.097Z,62.74
2023-04-19T18:06:31.884Z,62.76
2023-04-19T18:09:00.736Z,62.81
2023-04-19T18:11:29.187Z,62.98
2023-04-19T18:13:57.343Z,63.03
2023-04-19T18:16:25.513Z,63.06
2023-04-19T18:18:53.742Z,63.29
2023-04-19T18:21:21.970Z,63.41
2023-04-19T18:23:52.161Z,63.49
2023-04-19T18:26:21.813Z,63.58
2023-04-19T18:28:50.073Z,63.60
2023-04-19T18:31:18.139Z,63.56
2023-04-19T18:33:46.219Z,63.80
2023-04-19T18:36:14.449Z,64.01
2023-04-19T18:38:42.546Z,64.08
2023-04-19T18:41:10.671Z,64.15
2023-04-19T18:43:38.938Z,64.28
2023-04-19T18:46:07.348Z,64.24
2023-04-19T18:48:35.906Z,64.28
2023-04-19T18:51:04.092Z,64.40
2023-04-19T18:53:33.158Z,64.41
2023-04-19T18:56:01.760Z,64.54
2023-04-19T18:58:30.140Z,64.63
2023-04-19T19:00:59.284Z,64.60
2023-04-19T19:05:59.810Z,64.79
2023-04-19T19:08:28.421Z,64.82
2023-04-19T19:11:27.308Z,64.85
2023-04-19T19:13:44.908Z,64.95
2023-04-19T19:16:13.065Z,64.96
2023-04-19T19:18:41.545Z,64.98
2023-04-19T19:21:10.225Z,64.97
2023-04-19T19:23:42.531Z,65.03
2023-04-19T19:26:13.156Z,65.03
2023-04-19T19:28:42.116Z,64.90
2023-04-19T19:31:10.731Z,64.87
2023-04-19T19:33:40.807Z,65.01
2023-04-19T19:36:09.758Z,64.98
2023-04-19T19:38:38.091Z,64.97
2023-04-19T19:43:39.965Z,64.97
2023-04-19T19:46:09.565Z,64.93
2023-04-19T19:48:42.487Z,65.06
2023-04-19T19:53:42.634Z,65.19
2023-04-19T19:56:18.305Z,65.06
2023-04-19T19:58:51.903Z,65.11
2023-04-19T20:01:22.477Z,65.05
2023-04-19T20:03:51.920Z,65.11
2023-04-19T20:08:51.392Z,65.03
2023-04-19T20:11:19.885Z,64.85
2023-04-19T20:13:48.383Z,64.88
2023-04-19T20:16:18.868Z,64.87
2023-04-19T20:18:49.428Z,65.02
2023-04-19T20:21:17.993Z,65.06
2023-04-19T20:23:46.139Z,65.09
2023-04-19T20:26:14.463Z,65.07
2023-04-19T20:28:42.618Z,65.12
2023-04-19T20:31:11.252Z,65.03
2023-04-19T20:33:39.673Z,65.02
2023-04-19T20:36:07.793Z,65.09
2023-04-19T20:38:36.145Z,64.99
2023-04-19T20:41:04.331Z,64.97
2023-04-19T20:43:32.617Z,65.05
2023-04-19T20:46:00.814Z,65.09
2023-04-19T20:48:29.156Z,65.08
2023-04-19T20:50:57.246Z,64.96
2023-04-19T20:53:25.616Z,65.17
2023-04-19T20:55:53.772Z,65.18
2023-04-19T20:58:21.836Z,65.21
2023-04-19T21:00:50.190Z,65.20
2023-04-19T21:03:18.666Z,65.46
2023-04-19T21:05:47.213Z,65.35
2023-04-19T21:08:16.177Z,65.30
2023-04-19T21:10:44.945Z,65.36
2023-04-19T21:13:13.157Z,65.49
2023-04-19T21:15:41.424Z,65.33
2023-04-19T21:18:09.789Z,65.22
2023-04-19T21:20:38.036Z,65.31
2023-04-19T21:23:07.190Z,65.30
2023-04-19T21:25:35.522Z,65.39
2023-04-19T21:28:03.635Z,65.41
2023-04-19T21:30:32.778Z,65.39
2023-04-19T21:33:01.017Z,65.30
2023-04-19T21:35:29.135Z,65.27
2023-04-19T21:37:57.511Z,65.36
2023-04-19T21:40:25.816Z,65.40
2023-04-19T21:42:54.057Z,65.48
2023-04-19T21:45:22.143Z,65.41
2023-04-19T21:47:51.445Z,65.38
2023-04-19T21:50:19.596Z,65.45
2023-04-19T21:52:47.727Z,65.57
2023-04-19T21:55:16.011Z,65.64
2023-04-19T21:57:44.251Z,65.61
2023-04-19T22:00:12.817Z,65.46
2023-04-19T22:02:41.686Z,65.63
2023-04-19T22:05:10.112Z,65.61
2023-04-19T22:07:38.667Z,65.48
2023-04-19T22:10:07.862Z,65.71
2023-04-19T22:12:42.565Z,65.58
2023-04-19T22:15:16.561Z,65.54
2023-04-19T22:17:46.085Z,65.56
2023-04-19T22:20:14.905Z,65.71
2023-04-19T22:22:43.035Z,65.56
2023-04-19T22:25:11.217Z,65.64
2023-04-19T22:27:39.307Z,65.70
2023-04-19T22:30:08.240Z,65.60
2023-04-19T22:32:36.378Z,65.76
2023-04-19T22:35:05.902Z,65.78
2023-04-19T22:37:33.995Z,65.85
2023-04-19T22:40:02.285Z,65.82
2023-04-19T22:42:30.322Z,65.95
2023-04-19T22:54:12.370Z,65.98
2023-04-19T22:56:40.482Z,66.12
2023-04-19T22:59:08.826Z,66.03
2023-04-19T23:01:36.907Z,66.12
2023-04-19T23:04:05.490Z,66.13
2023-04-19T23:06:33.888Z,66.24
2023-04-19T23:09:02.313Z,66.16
2023-04-19T23:11:30.391Z,66.16
2023-04-19T23:13:58.451Z,66.30
2023-04-19T23:16:28.951Z,66.28
2023-04-19T23:18:57.017Z,66.32
2023-04-19T23:21:25.035Z,66.29
2023-04-19T23:23:53.185Z,66.21
2023-04-19T23:26:21.723Z,66.29
2023-04-19T23:28:49.789Z,66.38
2023-04-19T23:31:18.002Z,66.35
2023-04-19T23:33:46.293Z,66.20
2023-04-19T23:36:14.587Z,66.44
2023-04-19T23:38:42.645Z,66.29
2023-04-19T23:41:12.203Z,66.51
2023-04-19T23:43:40.560Z,66.42
2023-04-19T23:46:08.710Z,66.53
2023-04-19T23:48:37.209Z,66.48
2023-04-19T23:51:06.222Z,66.49
2023-04-19T23:53:34.281Z,66.51
2023-04-19T23:56:02.405Z,66.60
2023-04-19T23:58:30.550Z,66.37
